This is the latest recevied weather packets stored in our database for station/object DB0OHL. If no packets are shown the sender has not sent any weather packets the latest 10 day(s).
| Time | Temp. | Humidity | Pressure | Rain* | Wind** | Luminosity | Snow |
|---|---|---|---|---|---|---|---|
| 1777364726 | 13.89° C | 64% | 1021.9 hPa | 0 mm | - | - | - |
| 1777364123 | 13.89° C | 65% | 1021.8 hPa | 0 mm | - | - | - |
| 1777363521 | 13.33° C | 67% | 1021.8 hPa | 0 mm | - | - | - |
| 1777362918 | 12.78° C | 66% | 1021.9 hPa | 0 mm | - | - | - |
| 1777362315 | 12.22° C | 69% | 1021.9 hPa | 0 mm | - | - | - |
| 1777361773 | 11.67° C | 70% | 1021.8 hPa | 0 mm | - | - | - |
| 1777361171 | 11.11° C | 71% | 1021.8 hPa | 0 mm | - | - | - |
| 1777360568 | 10.56° C | 72% | 1021.8 hPa | 0 mm | - | - | - |
| 1777359966 | 10° C | 73% | 1021.9 hPa | 0 mm | - | - | - |
| 1777359363 | 8.89° C | 77% | 1021.8 hPa | 0 mm | - | - | - |
| 1777358760 | 8.89° C | 76% | 1021.7 hPa | 0 mm | - | - | - |
| 1777358158 | 8.89° C | 76% | 1021.6 hPa | 0 mm | - | - | - |
| 1777357555 | 8.89° C | 75% | 1021.5 hPa | 0 mm | - | - | - |
| 1777356953 | 9.44° C | 73% | 1021.5 hPa | 0 mm | - | - | - |
| 1777356350 | 9.44° C | 74% | 1021.5 hPa | 0 mm | - | - | - |
| 1777355748 | 8.89° C | 77% | 1021.5 hPa | 0 mm | - | - | - |
| 1777355145 | 8.33° C | 78% | 1021.4 hPa | 0 mm | - | - | - |
| 1777354543 | 7.78° C | 79% | 1021.4 hPa | 0 mm | - | - | - |
| 1777353940 | 7.78° C | 80% | 1021.3 hPa | 0 mm | - | - | - |
| 1777353337 | 7.22° C | 81% | 1021.4 hPa | 0 mm | - | - | - |
| 1777352735 | 7.22° C | 82% | 1021.4 hPa | 0 mm | - | - | - |
| 1777352132 | 7.22° C | 82% | 1021.3 hPa | 0 mm | - | - | - |
| 1777351530 | 7.22° C | 81% | 1021.4 hPa | 0 mm | - | - | - |
| 1777350927 | 7.22° C | 81% | 1021.3 hPa | 0 mm | - | - | - |
| 1777350325 | 7.22° C | 82% | 1021.1 hPa | 0 mm | - | - | - |
* Rain latest hour (hover to see other rain measurements)
** Current wind speed in m/s (hover to see current wind gust speed)